createdAt,value
2018-05-10T00:01:41.327Z,8.27
2018-05-10T00:04:12.111Z,7.60
2018-05-10T00:06:38.795Z,7.97
2018-05-10T00:09:05.486Z,7.93
2018-05-10T00:11:32.886Z,7.53
2018-05-10T00:13:59.546Z,8.38
2018-05-10T00:16:26.187Z,9.15
2018-05-10T00:18:53.162Z,8.00
2018-05-10T00:21:19.831Z,8.40
2018-05-10T00:23:46.558Z,7.87
2018-05-10T00:26:13.258Z,8.27
2018-05-10T00:28:39.941Z,8.90
2018-05-10T00:31:06.621Z,9.20
2018-05-10T00:33:33.233Z,8.07
2018-05-10T00:35:59.943Z,11.12
2018-05-10T00:38:26.597Z,9.65
2018-05-10T00:40:53.433Z,9.55
2018-05-10T00:43:24.217Z,10.18
2018-05-10T00:45:50.983Z,9.10
2018-05-10T00:48:17.612Z,8.40
2018-05-10T00:50:44.291Z,9.40
2018-05-10T00:53:10.944Z,10.45
2018-05-10T00:55:37.635Z,10.68
2018-05-10T00:58:04.351Z,9.90
2018-05-10T01:00:31.046Z,9.60
2018-05-10T01:02:57.722Z,10.77
2018-05-10T01:05:24.362Z,9.80
2018-05-10T01:07:51.010Z,10.65
2018-05-10T01:10:17.685Z,9.98
2018-05-10T01:12:44.354Z,10.05
2018-05-10T01:15:10.987Z,10.05
2018-05-10T01:17:37.652Z,11.02
2018-05-10T01:20:04.264Z,9.63
2018-05-10T01:22:31.219Z,9.40
2018-05-10T01:24:58.091Z,9.75
2018-05-10T01:27:24.752Z,10.35
2018-05-10T01:29:51.441Z,10.05
2018-05-10T01:32:18.054Z,9.90
2018-05-10T01:35:02.576Z,10.50
2018-05-10T01:37:29.225Z,9.82
2018-05-10T01:39:55.918Z,10.40
2018-05-10T01:42:22.588Z,11.77
2018-05-10T01:44:49.258Z,12.43
2018-05-10T01:47:15.901Z,10.93
2018-05-10T01:49:42.542Z,10.45
2018-05-10T01:52:09.186Z,12.77
2018-05-10T01:54:35.895Z,10.98
2018-05-10T01:57:02.591Z,10.25
2018-05-10T01:59:29.248Z,11.05
2018-05-10T02:01:55.939Z,10.60
2018-05-10T02:04:22.631Z,11.15
2018-05-10T02:06:49.288Z,11.48
2018-05-10T02:09:15.977Z,9.70
2018-05-10T02:11:42.587Z,9.80
2018-05-10T02:14:09.977Z,10.60
2018-05-10T02:16:36.603Z,10.85
2018-05-10T02:19:03.539Z,11.10
2018-05-10T02:21:30.239Z,12.00
2018-05-10T02:23:56.921Z,11.00
2018-05-10T02:26:23.582Z,11.18
2018-05-10T02:28:50.262Z,10.35
2018-05-10T02:31:16.911Z,11.55
2018-05-10T02:33:43.547Z,10.82
2018-05-10T02:36:10.312Z,11.00
2018-05-10T02:38:36.997Z,12.25
2018-05-10T02:41:04.009Z,12.63
2018-05-10T02:43:30.681Z,11.12
2018-05-10T02:45:57.334Z,10.90
2018-05-10T02:48:23.975Z,12.00
2018-05-10T02:50:50.673Z,12.50
2018-05-10T02:53:17.804Z,13.07
2018-05-10T02:55:44.460Z,13.65
2018-05-10T02:58:11.080Z,13.00
2018-05-10T03:00:37.751Z,12.48
2018-05-10T03:03:04.441Z,13.02
2018-05-10T03:05:31.079Z,12.68
2018-05-10T03:07:57.721Z,11.57
2018-05-10T03:10:24.346Z,12.32
2018-05-10T03:12:50.991Z,12.05
2018-05-10T03:15:17.702Z,13.30
2018-05-10T03:17:44.380Z,13.73
2018-05-10T03:20:11.791Z,13.07
2018-05-10T03:22:38.479Z,13.60
2018-05-10T03:25:08.942Z,14.35
2018-05-10T03:27:35.727Z,15.60
2018-05-10T03:30:02.447Z,18.48
2018-05-10T03:32:29.091Z,22.05
2018-05-10T03:34:55.757Z,26.83
2018-05-10T03:37:22.418Z,31.30
2018-05-10T03:39:49.320Z,39.63
2018-05-10T03:42:15.947Z,40.95
2018-05-10T03:44:42.598Z,44.30
2018-05-10T03:47:09.507Z,45.53
2018-05-10T03:49:36.167Z,47.00
2018-05-10T03:52:02.804Z,48.92
2018-05-10T03:54:29.470Z,50.33
2018-05-10T03:56:56.088Z,49.72
2018-05-10T03:59:22.743Z,55.95
2018-05-10T04:01:49.391Z,57.40
2018-05-10T04:04:22.950Z,57.38
2018-05-10T04:06:55.679Z,59.95
2018-05-10T04:09:43.126Z,57.33
2018-05-10T04:12:09.802Z,63.28
2018-05-10T04:14:36.510Z,62.20
2018-05-10T04:17:03.181Z,64.37
2018-05-10T04:19:29.817Z,63.58
2018-05-10T04:21:56.483Z,62.83
2018-05-10T04:24:23.143Z,66.35
2018-05-10T04:26:49.782Z,65.32
2018-05-10T04:29:16.459Z,65.30
2018-05-10T04:31:43.120Z,63.25
2018-05-10T04:34:09.775Z,64.20
2018-05-10T04:36:36.466Z,64.35
2018-05-10T04:39:03.157Z,61.25
2018-05-10T04:41:33.754Z,61.83
2018-05-10T04:44:00.378Z,59.53
2018-05-10T04:46:27.057Z,62.58
2018-05-10T04:48:53.738Z,61.90
2018-05-10T04:51:20.370Z,60.12
2018-05-10T04:53:47.017Z,60.22
2018-05-10T04:56:13.742Z,61.20
2018-05-10T04:58:40.309Z,61.13
2018-05-10T05:01:06.967Z,62.08
2018-05-10T05:03:33.634Z,59.20
2018-05-10T05:06:00.316Z,60.75
2018-05-10T05:08:26.967Z,59.58
2018-05-10T05:10:53.597Z,59.72
2018-05-10T05:13:20.258Z,60.75
2018-05-10T05:15:46.887Z,56.47
2018-05-10T05:18:13.504Z,58.87
2018-05-10T05:20:40.154Z,57.25
2018-05-10T05:23:06.798Z,62.15
2018-05-10T05:25:33.467Z,55.85
2018-05-10T05:28:00.096Z,57.40
2018-05-10T05:30:26.719Z,55.47
2018-05-10T05:32:53.356Z,57.88
2018-05-10T05:35:20.018Z,55.78
2018-05-10T05:37:46.655Z,53.78
2018-05-10T05:40:13.536Z,55.45
2018-05-10T05:42:40.178Z,55.97
2018-05-10T05:45:06.824Z,53.10
2018-05-10T05:47:33.469Z,52.92
2018-05-10T05:50:00.100Z,55.50
2018-05-10T05:52:26.754Z,53.50
2018-05-10T05:54:53.411Z,50.83
2018-05-10T05:57:20.283Z,51.30
2018-05-10T05:59:46.942Z,50.17
2018-05-10T06:02:13.594Z,48.60
2018-05-10T06:04:40.446Z,50.60
2018-05-10T06:07:07.138Z,47.83
2018-05-10T06:09:33.778Z,47.75
2018-05-10T06:12:00.430Z,47.35
2018-05-10T06:14:27.101Z,46.05
2018-05-10T06:16:53.751Z,44.05
2018-05-10T06:19:20.384Z,46.97
2018-05-10T06:21:47.021Z,44.65
2018-05-10T06:24:13.683Z,42.67
2018-05-10T06:26:40.331Z,41.78
2018-05-10T06:29:06.972Z,43.10
2018-05-10T06:31:33.611Z,43.38
2018-05-10T06:34:00.291Z,44.33
2018-05-10T06:36:26.934Z,39.13
2018-05-10T06:38:53.591Z,38.97
2018-05-10T06:41:20.232Z,36.35
2018-05-10T06:43:46.916Z,38.13
2018-05-10T06:46:13.544Z,39.78
2018-05-10T06:48:40.203Z,37.47
2018-05-10T06:51:06.835Z,39.95
2018-05-10T06:53:33.496Z,36.30
2018-05-10T06:56:00.302Z,38.58
2018-05-10T06:58:26.962Z,36.92
2018-05-10T07:00:53.587Z,36.60
2018-05-10T07:03:20.312Z,34.83
2018-05-10T07:05:46.907Z,35.47
2018-05-10T07:08:13.567Z,34.97
2018-05-10T07:10:40.235Z,33.63
2018-05-10T07:13:06.868Z,34.90
2018-05-10T07:15:33.530Z,31.20
2018-05-10T07:18:00.206Z,32.60
2018-05-10T07:20:27.011Z,31.30
2018-05-10T07:22:53.635Z,29.83
2018-05-10T07:25:20.373Z,29.90
2018-05-10T07:27:46.899Z,29.47
2018-05-10T07:30:13.547Z,29.30
2018-05-10T07:32:40.213Z,29.57
2018-05-10T07:35:06.862Z,28.63
2018-05-10T07:37:33.508Z,29.93
2018-05-10T07:40:00.252Z,30.50
2018-05-10T07:42:27.048Z,28.93
2018-05-10T07:44:53.824Z,28.50
2018-05-10T07:47:20.509Z,27.60
2018-05-10T07:49:47.246Z,30.02
2018-05-10T07:52:13.933Z,27.63
2018-05-10T07:54:40.664Z,29.03
2018-05-10T07:57:07.367Z,27.17
2018-05-10T07:59:34.095Z,27.40
2018-05-10T08:02:00.834Z,29.05
2018-05-10T08:04:27.547Z,29.12
2018-05-10T08:06:54.255Z,24.87
2018-05-10T08:09:20.986Z,27.83
2018-05-10T08:11:47.754Z,27.17
2018-05-10T08:14:14.526Z,29.80
2018-05-10T08:16:41.267Z,27.67
2018-05-10T08:19:08.105Z,28.77
2018-05-10T08:21:34.835Z,31.90
2018-05-10T08:24:01.534Z,29.07
2018-05-10T08:26:28.421Z,27.95
2018-05-10T08:28:55.151Z,28.83
2018-05-10T08:31:21.890Z,30.03
2018-05-10T08:33:48.570Z,29.50
2018-05-10T08:36:15.298Z,27.40
2018-05-10T08:38:42.043Z,25.23
2018-05-10T08:41:08.823Z,27.43
2018-05-10T08:43:35.616Z,28.07
2018-05-10T08:46:02.327Z,26.30
2018-05-10T08:48:29.043Z,24.43
2018-05-10T08:50:55.800Z,25.13
2018-05-10T08:53:22.529Z,26.00
2018-05-10T08:55:49.270Z,26.57
2018-05-10T08:58:16.023Z,26.70
2018-05-10T09:00:42.729Z,24.80
2018-05-10T09:03:09.401Z,24.70
2018-05-10T09:05:36.143Z,23.83
2018-05-10T09:08:02.816Z,23.13
2018-05-10T09:10:29.558Z,23.83
2018-05-10T09:12:56.277Z,23.03
2018-05-10T09:15:22.972Z,24.27
2018-05-10T09:17:49.637Z,22.73
2018-05-10T09:20:16.385Z,20.80
2018-05-10T09:22:43.137Z,21.27
2018-05-10T09:25:09.809Z,20.30
2018-05-10T09:27:36.809Z,20.50
2018-05-10T09:30:03.542Z,21.33
2018-05-10T09:32:30.266Z,19.53
2018-05-10T09:34:56.915Z,17.37
2018-05-10T09:37:23.638Z,17.30
2018-05-10T09:39:50.339Z,18.00
2018-05-10T09:42:17.108Z,16.53
2018-05-10T09:44:43.785Z,15.80
2018-05-10T09:47:10.581Z,16.50
2018-05-10T09:49:37.342Z,17.20
2018-05-10T09:52:05.589Z,14.33
2018-05-10T09:54:32.259Z,14.23
2018-05-10T09:56:59.018Z,14.27
2018-05-10T09:59:25.798Z,13.40
2018-05-10T10:01:52.466Z,12.43
2018-05-10T10:04:19.125Z,15.10
2018-05-10T10:06:45.850Z,14.25
2018-05-10T10:09:12.883Z,13.53
2018-05-10T10:11:39.699Z,12.67
2018-05-10T10:14:06.355Z,13.73
2018-05-10T10:16:33.069Z,12.23
2018-05-10T10:18:59.760Z,11.33
2018-05-10T10:21:26.582Z,12.98
2018-05-10T10:23:53.324Z,14.40
2018-05-10T10:26:20.013Z,14.63
2018-05-10T10:28:46.697Z,13.65
2018-05-10T10:31:13.340Z,14.25
2018-05-10T10:33:39.966Z,15.33
2018-05-10T10:36:06.654Z,14.52
2018-05-10T10:38:33.471Z,14.00
2018-05-10T10:41:00.151Z,13.02
2018-05-10T10:43:28.445Z,14.70
2018-05-10T10:45:55.100Z,13.23
2018-05-10T10:48:21.759Z,14.48
2018-05-10T10:50:49.119Z,15.43
2018-05-10T10:53:17.030Z,15.38
2018-05-10T10:55:45.484Z,15.48
2018-05-10T10:58:12.115Z,17.10
2018-05-10T11:10:23.830Z,15.10
2018-05-10T11:12:50.481Z,16.73
2018-05-10T11:15:17.143Z,18.23
2018-05-10T11:17:43.797Z,19.92
2018-05-10T11:20:10.486Z,19.98
2018-05-10T11:22:37.176Z,21.23
2018-05-10T11:25:03.830Z,19.95
2018-05-10T11:27:30.516Z,20.33
2018-05-10T11:29:57.185Z,21.58
2018-05-10T11:32:23.967Z,21.05
2018-05-10T11:34:51.575Z,21.50
2018-05-10T11:37:18.271Z,20.85
2018-05-10T11:39:44.980Z,22.95
2018-05-10T11:42:11.693Z,22.62
2018-05-10T11:44:38.337Z,23.10
2018-05-10T11:47:05.066Z,23.38
2018-05-10T11:49:31.692Z,23.42
2018-05-10T11:51:58.447Z,22.08
2018-05-10T11:54:25.132Z,19.73
2018-05-10T11:56:51.841Z,19.10
2018-05-10T11:59:18.484Z,19.85
2018-05-10T12:01:45.167Z,17.90
2018-05-10T12:04:11.862Z,19.67
2018-05-10T12:06:38.571Z,18.45
2018-05-10T12:09:05.268Z,17.27
2018-05-10T12:11:31.915Z,19.12
2018-05-10T12:13:58.603Z,20.02
2018-05-10T12:16:25.250Z,20.58
2018-05-10T12:18:51.903Z,23.48
2018-05-10T12:21:18.577Z,23.27
2018-05-10T12:23:45.251Z,21.55
2018-05-10T12:26:11.941Z,20.65
2018-05-10T12:28:38.617Z,18.10
2018-05-10T12:31:05.364Z,18.85
2018-05-10T12:33:32.071Z,17.85
2018-05-10T12:35:58.727Z,17.60
2018-05-10T12:38:25.446Z,16.00
2018-05-10T12:40:52.138Z,16.90
2018-05-10T12:43:18.766Z,15.77
2018-05-10T12:45:45.440Z,15.60
2018-05-10T12:48:12.133Z,15.38
2018-05-10T12:50:38.786Z,15.25
2018-05-10T12:53:05.457Z,15.18
2018-05-10T12:55:32.110Z,14.85
2018-05-10T12:57:58.785Z,15.40
2018-05-10T13:00:25.478Z,12.68
2018-05-10T13:02:52.216Z,14.52
2018-05-10T13:05:18.836Z,13.70
2018-05-10T13:07:45.458Z,12.80
2018-05-10T13:10:12.168Z,13.18
2018-05-10T13:12:38.811Z,12.57
2018-05-10T13:15:05.472Z,13.38
2018-05-10T13:17:32.104Z,13.57
2018-05-10T13:19:58.801Z,11.27
2018-05-10T13:22:25.513Z,13.57
2018-05-10T13:24:52.203Z,14.50
2018-05-10T13:27:18.946Z,14.07
2018-05-10T13:29:45.536Z,14.00
2018-05-10T13:32:12.189Z,14.57
2018-05-10T13:34:38.839Z,13.80
2018-05-10T13:37:05.601Z,12.18
2018-05-10T13:39:32.231Z,13.55
2018-05-10T13:41:59.022Z,12.82
2018-05-10T13:44:25.702Z,11.15
2018-05-10T13:46:52.359Z,10.60
2018-05-10T13:49:19.032Z,12.15
2018-05-10T13:51:45.719Z,10.88
2018-05-10T13:54:12.409Z,10.55
2018-05-10T13:59:12.202Z,9.73
2018-05-10T14:01:38.896Z,9.32
2018-05-10T14:04:05.676Z,7.03
2018-05-10T14:06:32.395Z,6.10
2018-05-10T14:08:59.051Z,4.70
2018-05-10T14:11:25.992Z,5.60
2018-05-10T14:13:52.689Z,5.72
2018-05-10T14:16:19.383Z,7.00
2018-05-10T14:18:46.045Z,5.80
2018-05-10T14:21:12.710Z,7.87
2018-05-10T14:23:39.365Z,7.18
2018-05-10T14:26:07.218Z,7.30
2018-05-10T14:28:33.879Z,7.15
2018-05-10T14:31:00.539Z,7.28
2018-05-10T14:33:27.241Z,6.78
2018-05-10T14:35:53.875Z,6.80
2018-05-10T14:38:20.519Z,8.65
2018-05-10T14:40:47.174Z,8.57
2018-05-10T14:43:13.998Z,8.13
2018-05-10T14:45:40.648Z,8.25
2018-05-10T14:48:07.325Z,8.52
2018-05-10T14:50:33.986Z,9.25
2018-05-10T14:53:00.684Z,10.63
2018-05-10T14:55:27.356Z,7.55
2018-05-10T14:57:53.987Z,9.07
2018-05-10T15:00:20.678Z,8.93
2018-05-10T15:02:47.343Z,8.32
2018-05-10T15:05:14.049Z,9.90
2018-05-10T15:07:40.668Z,10.75
2018-05-10T15:10:07.330Z,11.30
2018-05-10T15:12:34.075Z,11.52
2018-05-10T15:15:00.734Z,10.55
2018-05-10T15:17:27.396Z,10.95
2018-05-10T15:19:54.092Z,10.23
2018-05-10T15:22:20.810Z,11.82
2018-05-10T15:24:47.481Z,10.73
2018-05-10T15:27:14.875Z,12.23
2018-05-10T15:29:41.602Z,12.30
2018-05-10T15:32:08.517Z,11.95
2018-05-10T15:34:35.172Z,12.80
2018-05-10T15:37:01.851Z,13.02
2018-05-10T15:39:28.509Z,13.07
2018-05-10T15:41:55.155Z,11.90
2018-05-10T15:44:21.825Z,12.13
2018-05-10T15:46:48.483Z,12.23
2018-05-10T15:49:15.125Z,12.50
2018-05-10T15:51:41.851Z,12.05
2018-05-10T15:54:08.752Z,12.75
2018-05-10T15:56:35.419Z,11.43
2018-05-10T15:59:02.140Z,14.60
2018-05-10T16:01:28.825Z,14.45
2018-05-10T16:03:55.498Z,13.77
2018-05-10T16:06:22.127Z,18.15
2018-05-10T16:08:48.781Z,15.68
2018-05-10T16:11:15.472Z,14.68
2018-05-10T16:13:42.180Z,14.70
2018-05-10T16:16:08.849Z,16.48
2018-05-10T16:18:35.542Z,15.23
2018-05-10T16:21:02.166Z,14.70
2018-05-10T16:23:28.867Z,15.13
2018-05-10T16:25:55.505Z,17.52
2018-05-10T16:28:22.164Z,16.00
2018-05-10T16:30:48.791Z,15.70
2018-05-10T16:33:15.445Z,14.80
2018-05-10T16:35:42.071Z,16.90
2018-05-10T16:38:08.732Z,16.10
2018-05-10T16:40:35.414Z,15.80
2018-05-10T16:43:02.053Z,15.75
2018-05-10T16:45:28.737Z,17.33
2018-05-10T16:47:55.414Z,16.80
2018-05-10T16:50:22.093Z,16.90
2018-05-10T16:52:48.781Z,17.85
2018-05-10T16:55:15.501Z,16.60
2018-05-10T16:57:42.175Z,17.58
2018-05-10T17:00:08.811Z,19.23
2018-05-10T17:02:35.451Z,20.77
2018-05-10T17:05:02.135Z,17.30
2018-05-10T17:07:28.809Z,19.37
2018-05-10T17:09:55.501Z,19.12
2018-05-10T17:12:22.183Z,18.92
2018-05-10T17:14:48.839Z,19.75
2018-05-10T17:17:15.813Z,18.10
2018-05-10T17:19:42.517Z,18.70
2018-05-10T17:22:09.186Z,19.42
2018-05-10T17:24:35.872Z,20.05
2018-05-10T17:27:06.514Z,21.00
2018-05-10T17:29:33.407Z,19.87
2018-05-10T17:32:00.128Z,19.25
2018-05-10T17:34:26.799Z,20.98
2018-05-10T17:36:53.456Z,21.65
2018-05-10T17:39:20.152Z,21.90
2018-05-10T17:41:46.895Z,22.02
2018-05-10T17:44:13.516Z,24.73
2018-05-10T17:46:40.244Z,22.37
2018-05-10T17:49:06.929Z,23.12
2018-05-10T17:51:33.628Z,23.95
2018-05-10T17:54:01.086Z,22.92
2018-05-10T17:56:27.778Z,24.37
2018-05-10T17:58:54.881Z,25.10
2018-05-10T18:01:21.581Z,24.50
2018-05-10T18:03:48.216Z,24.60
2018-05-10T18:06:14.955Z,24.77
2018-05-10T18:08:41.615Z,25.85
2018-05-10T18:11:08.371Z,25.27
2018-05-10T18:13:35.100Z,25.80
2018-05-10T18:16:01.703Z,24.48
2018-05-10T18:18:28.390Z,25.60
2018-05-10T18:20:55.038Z,24.40
2018-05-10T18:23:22.090Z,23.77
2018-05-10T18:25:48.777Z,23.30
2018-05-10T18:28:15.441Z,25.12
2018-05-10T18:30:42.151Z,23.85
2018-05-10T18:33:08.933Z,25.02
2018-05-10T18:35:35.575Z,25.40
2018-05-10T18:38:03.231Z,24.90
2018-05-10T18:40:29.944Z,25.08
2018-05-10T18:42:56.624Z,27.08
2018-05-10T18:45:23.684Z,25.58
2018-05-10T18:47:50.448Z,25.75
2018-05-10T18:50:17.174Z,27.45
2018-05-10T18:52:43.877Z,26.73
2018-05-10T18:55:10.629Z,24.45
2018-05-10T18:57:37.329Z,26.15
2018-05-10T19:00:04.119Z,27.27
2018-05-10T19:02:30.868Z,26.25
2018-05-10T19:04:57.604Z,25.05
2018-05-10T19:07:24.481Z,25.73
2018-05-10T19:09:51.404Z,27.05
2018-05-10T19:12:18.195Z,26.90
2018-05-10T19:14:45.107Z,27.60
2018-05-10T19:17:11.892Z,25.85
2018-05-10T19:19:38.723Z,26.87
2018-05-10T19:22:05.583Z,28.05
2018-05-10T19:24:32.434Z,24.30
2018-05-10T19:26:59.220Z,24.30
2018-05-10T19:29:25.909Z,23.42
2018-05-10T19:31:52.702Z,18.75
2018-05-10T19:34:19.399Z,16.85
2018-05-10T19:36:46.320Z,17.62
2018-05-10T19:39:13.168Z,18.48
2018-05-10T19:41:39.980Z,17.50
2018-05-10T19:44:06.823Z,16.00
2018-05-10T19:46:33.524Z,14.30
2018-05-10T19:49:00.478Z,15.30
2018-05-10T19:51:27.327Z,16.52
2018-05-10T19:53:54.342Z,15.52
2018-05-10T19:56:21.225Z,17.33
2018-05-10T19:58:47.973Z,15.63
2018-05-10T20:01:14.820Z,16.20
2018-05-10T20:03:41.712Z,16.25
2018-05-10T20:06:08.460Z,17.58
2018-05-10T20:08:35.425Z,17.50
2018-05-10T20:11:02.186Z,16.23
2018-05-10T20:13:29.100Z,16.45
2018-05-10T20:15:55.927Z,15.90
2018-05-10T20:18:22.657Z,17.05
2018-05-10T20:20:50.666Z,16.90
2018-05-10T20:23:17.885Z,16.10
2018-05-10T20:25:44.639Z,18.60
2018-05-10T20:28:12.375Z,16.73
2018-05-10T20:30:39.166Z,16.80
2018-05-10T20:33:05.952Z,18.58
2018-05-10T20:35:32.697Z,16.62
2018-05-10T20:37:59.568Z,16.42
2018-05-10T20:40:26.396Z,17.45
2018-05-10T20:42:53.280Z,16.35
2018-05-10T20:45:20.242Z,16.55
2018-05-10T20:47:47.015Z,16.60
2018-05-10T20:50:13.786Z,16.87
2018-05-10T20:52:40.757Z,18.42
2018-05-10T20:55:07.539Z,16.90
2018-05-10T20:57:34.357Z,15.38
2018-05-10T21:00:01.112Z,14.68
2018-05-10T21:02:27.928Z,15.05
2018-05-10T21:04:54.740Z,14.63
2018-05-10T21:07:21.560Z,13.20
2018-05-10T21:09:48.400Z,14.20
2018-05-10T21:12:21.008Z,14.80
2018-05-10T21:14:47.755Z,13.75
2018-05-10T21:17:14.645Z,14.30
2018-05-10T21:19:41.400Z,14.50
2018-05-10T21:22:08.201Z,13.45
2018-05-10T21:24:35.848Z,12.75
2018-05-10T21:27:02.621Z,13.73
2018-05-10T21:29:30.029Z,13.73
2018-05-10T21:31:56.805Z,13.93
2018-05-10T21:34:23.576Z,13.23
2018-05-10T21:36:50.374Z,13.57
2018-05-10T21:39:17.141Z,15.45
2018-05-10T21:41:44.905Z,14.85
2018-05-10T21:44:11.750Z,15.02
2018-05-10T21:46:38.544Z,14.48
2018-05-10T21:49:05.463Z,13.62
2018-05-10T21:51:32.348Z,14.80
2018-05-10T21:53:59.131Z,14.87
2018-05-10T21:56:25.920Z,14.05
2018-05-10T21:58:52.680Z,13.95
2018-05-10T22:01:19.553Z,12.18
2018-05-10T22:03:46.333Z,12.95
2018-05-10T22:06:13.316Z,14.20
2018-05-10T22:08:40.148Z,14.35
2018-05-10T22:11:06.868Z,13.07
2018-05-10T22:13:33.773Z,12.82
2018-05-10T22:16:00.720Z,12.95
2018-05-10T22:18:27.842Z,13.77
2018-05-10T22:20:54.605Z,13.90
2018-05-10T22:23:21.362Z,11.98
2018-05-10T22:25:48.052Z,13.43
2018-05-10T22:28:14.724Z,12.70
2018-05-10T22:30:41.785Z,13.73
2018-05-10T22:33:08.517Z,13.70
2018-05-10T22:35:35.223Z,14.00
2018-05-10T22:38:01.897Z,12.43
2018-05-10T22:40:28.528Z,11.77
2018-05-10T22:42:55.187Z,12.82
2018-05-10T22:45:21.928Z,11.80
2018-05-10T22:47:48.674Z,12.15
2018-05-10T22:50:15.444Z,10.55
2018-05-10T22:52:42.191Z,11.18
2018-05-10T22:55:09.006Z,11.18
2018-05-10T22:57:35.711Z,10.57
2018-05-10T23:00:02.396Z,9.60
2018-05-10T23:02:29.118Z,8.73
2018-05-10T23:04:55.838Z,7.93
2018-05-10T23:07:22.534Z,9.57
2018-05-10T23:09:49.194Z,8.70
2018-05-10T23:12:15.892Z,8.50
2018-05-10T23:14:42.507Z,8.18
2018-05-10T23:17:09.193Z,8.02
2018-05-10T23:19:35.891Z,7.82
2018-05-10T23:22:02.540Z,8.38
2018-05-10T23:24:29.208Z,8.05
2018-05-10T23:26:55.843Z,7.80
2018-05-10T23:29:22.496Z,7.18
2018-05-10T23:31:49.133Z,8.15
2018-05-10T23:34:15.775Z,7.20
2018-05-10T23:36:42.498Z,7.40
2018-05-10T23:39:10.029Z,8.82
2018-05-10T23:41:36.652Z,7.70
2018-05-10T23:44:03.331Z,7.37
2018-05-10T23:46:30.016Z,6.82
2018-05-10T23:48:56.691Z,7.78
2018-05-10T23:51:23.306Z,7.05
2018-05-10T23:53:49.996Z,7.55
2018-05-10T23:56:16.639Z,7.20
2018-05-10T23:58:43.318Z,7.32
